Terminal Aerodrome Forecast
Issued by NWS Albany, NY

Home | Current Version | Previous Version | Text Only | Print | Product List | Glossary On
Versions: 1 2 3 4 5 6 7 8 9 10 11 12 13 14 15 16 17 18 19 20 21 22
000
FTUS41 KALY 271005 AAC
TAFGFL
TAF AMD
KGFL 271005Z 2710/2806 19003KT 2SM BR SCT002
      TEMPO 2710/2711 00000KT 1/2SM FG VV002
     FM271100 19004KT P6SM BKN070
     FM271600 20006KT P6SM VCSH BKN070
      TEMPO 2717/2721 VRB15G25KT 3SM TSRA BR OVC025CB
     FM272300 23005KT P6SM SCT070 BKN250=

USA.gov is the U.S. government's official web portal to all federal, state and local government web resources and services.